• Join FlightAware (Why Join?)
  • Login
  • US Flag 
01:14AM EDT


 

Airport Tracker/Info


-or-


 

Live Flight TrackerFlight Track Log ✈ N4855T ✈ 09-Jun-2013 ✈ KDTO - KDTO

Flight Track Log - Related Links

Times and Time Zones

All times are in EDT time to prevent confusion due to time zone crossing. See the N4855T flight status page for this flight to view local times or setup timezone preferences in your user account.

Time Position Orientation Groundspeed Altitude Reporting Facility
EDT Latitude Longitude Course Direction KTS MPH feet Rate Location/Type
10:33PM 32.8339 -98.0564 79° East 120 138 2,500  Level Fort Worth Center
10:34PM 32.8403 -98.0167 79° East 103 119 3,200 480 Climbing Fort Worth Center
10:35PM 32.8383 -97.9869 94° East 103 119 3,500 180 Climbing Fort Worth Center
10:36PM 32.8364 -97.9425 93° East 103 119 3,600  Climbing Fort Worth Center
10:37PM 32.8533 -97.9106 58° Northeast 103 119 3,500 -60 Descending Fort Worth Center
10:38PM 32.8722 -97.8711 60° Northeast 117 135 3,500  Level Fort Worth Center
10:39PM 32.8889 -97.8414 56° Northeast 122 140 3,500  Level Fort Worth Center
10:40PM 32.9100 -97.8019 57° Northeast 122 140 3,500  Level Fort Worth Center
10:41PM 32.9247 -97.7697 61° Northeast 122 140 3,500  Level Fort Worth Center
10:42PM 32.9436 -97.7303 60° Northeast 122 140 3,500  Level Fort Worth Center
10:43PM 32.9603 -97.6958 60° Northeast 122 140 3,500  Level Fort Worth Center
10:44PM 32.9792 -97.6586 59° Northeast 122 140 3,500  Level Fort Worth Center
10:45PM 32.9939 -97.6264 61° Northeast 122 140 3,500  Level Fort Worth Center
10:46PM 33.0106 -97.5917 60° Northeast 117 135 3,500 -60 Level Fort Worth Center
10:47PM 33.0294 -97.5547 59° Northeast 117 135 3,400  Descending Fort Worth Center
10:48PM 33.0525 -97.5275 45° Northeast 117 135 3,500  Climbing Fort Worth Center
10:49PM 33.0839 -97.5028 33° Northeast 122 140 3,500  Level Fort Worth Center
10:51PM 33.1500 -97.4500 34° Northeast 128 147 3,500  Level Dallas / Fort Worth TRACON
10:52PM 33.1667 -97.4333 40° Northeast 127 146 3,500  Level Dallas / Fort Worth TRACON
10:53PM 33.2000 -97.4167 23° Northeast 126 145 3,500  Level Dallas / Fort Worth TRACON
10:54PM 33.2333 -97.3833 40° Northeast 128 147 3,500 -120 Level Dallas / Fort Worth TRACON
10:55PM 33.2500 -97.3667 40° Northeast 130 150 3,300 -360 Descending Dallas / Fort Worth TRACON
10:56PM 33.3000 -97.3333 29° Northeast 138 159 2,800 -360 Descending Dallas / Fort Worth TRACON
10:57PM 33.3333 -97.3167 23° Northeast 136 157 2,500 -180 Descending Dallas / Fort Worth TRACON
10:58PM 33.3500 -97.3000 40° Northeast 126 145 2,500  Level Dallas / Fort Worth TRACON
10:59PM 33.3500 -97.2500 90° East 118 136 2,500  Level Dallas / Fort Worth TRACON
11:00PM 33.3500 -97.2167 90° East 102 117 2,500  Level Dallas / Fort Worth TRACON
11:01PM 33.3333 -97.2000 140° Southeast 98 113 2,500 -180 Level Dallas / Fort Worth TRACON
11:02PM 33.3000 -97.2000 180° South 111 128 2,200 -300 Descending Dallas / Fort Worth TRACON